Time,TemperatureF,DewpointF,PressureIn,WindDirection,WindDirectionDegrees,WindSpeedMPH,WindSpeedGustMPH,Humidity,HourlyPrecipIn,Conditions,Clouds,dailyrainin,SoftwareType,DateUTC
2013-11-14 00:00:00,28.7,25.0,30.55,NNW,346,0.0,0.0,86,0.00,,OVC036,0.00,VWS V14.01,2013-11-14 05:00:00,
2013-11-14 00:01:00,28.7,25.3,30.55,NNW,346,0.0,0.0,87,0.00,,CLR,0.00,VWS V14.01,2013-11-14 05:01:00,
2013-11-14 00:06:00,28.7,25.3,30.56,NNW,346,0.0,0.0,87,0.00,,CLR,0.00,VWS V14.01,2013-11-14 05:06:00,
2013-11-14 00:11:00,28.7,25.0,30.56,NNW,346,0.0,0.0,86,0.00,,CLR,0.00,VWS V14.01,2013-11-14 05:11:00,
2013-11-14 00:16:00,28.6,25.2,30.55,NNW,346,0.0,0.0,87,0.00,,CLR,0.00,VWS V14.01,2013-11-14 05:16:00,
2013-11-14 00:21:00,28.5,24.9,30.55,NNW,346,0.0,0.0,86,0.00,,CLR,0.00,VWS V14.01,2013-11-14 05:21:00,
2013-11-14 00:26:00,28.4,24.8,30.55,NNW,346,0.0,0.0,86,0.00,,CLR,0.00,VWS V14.01,2013-11-14 05:26:00,
2013-11-14 00:30:00,28.3,24.7,30.55,NNW,346,0.0,0.0,86,0.00,,OVC036,0.00,VWS V14.01,2013-11-14 05:30:00,
2013-11-14 00:31:00,28.3,24.7,30.55,NNW,346,0.0,0.0,86,0.00,,CLR,0.00,VWS V14.01,2013-11-14 05:31:00,
2013-11-14 00:36:00,28.3,24.9,30.55,NNW,346,0.0,0.0,87,0.00,,CLR,0.00,VWS V14.01,2013-11-14 05:36:00,
2013-11-14 00:41:00,28.3,24.9,30.55,NNW,346,0.0,0.0,87,0.00,,CLR,0.00,VWS V14.01,2013-11-14 05:41:00,
2013-11-14 00:46:00,28.3,25.2,30.56,NNW,346,0.0,0.0,88,0.00,,CLR,0.00,VWS V14.01,2013-11-14 05:46:00,
2013-11-14 00:51:00,28.3,25.2,30.55,NNW,346,0.0,0.0,88,0.00,,CLR,0.00,VWS V14.01,2013-11-14 05:51:00,
2013-11-14 00:56:00,28.3,25.2,30.56,NNW,346,0.0,0.0,88,0.00,,CLR,0.00,VWS V14.01,2013-11-14 05:56:00,
2013-11-14 01:00:00,28.3,25.2,30.55,NNW,346,0.0,0.0,88,0.00,,OVC036,0.00,VWS V14.01,2013-11-14 06:00:00,
2013-11-14 01:01:00,28.3,25.2,30.55,NNW,346,0.0,0.0,88,0.00,,CLR,0.00,VWS V14.01,2013-11-14 06:01:00,
2013-11-14 01:06:00,28.2,25.1,30.55,NNW,346,0.0,0.0,88,0.00,,CLR,0.00,VWS V14.01,2013-11-14 06:06:00,
2013-11-14 01:11:00,28.1,25.0,30.55,NNW,346,0.0,0.0,88,0.00,,CLR,0.00,VWS V14.01,2013-11-14 06:11:00,
2013-11-14 01:16:00,28.0,24.9,30.55,NNW,346,0.0,0.0,88,0.00,,CLR,0.00,VWS V14.01,2013-11-14 06:16:00,
2013-11-14 01:21:00,27.9,24.8,30.55,NNW,346,0.0,0.0,88,0.00,,CLR,0.00,VWS V14.01,2013-11-14 06:21:00,
2013-11-14 01:26:00,28.0,25.2,30.55,NNW,346,0.0,0.0,89,0.00,,CLR,0.00,VWS V14.01,2013-11-14 06:26:00,
2013-11-14 01:30:00,27.9,25.1,30.55,NNW,346,0.0,0.0,89,0.00,,OVC036,0.00,VWS V14.01,2013-11-14 06:30:00,
2013-11-14 01:31:00,27.9,25.1,30.55,NNW,346,0.0,0.0,89,0.00,,CLR,0.00,VWS V14.01,2013-11-14 06:31:00,
2013-11-14 01:36:00,27.8,25.0,30.55,NNW,346,0.0,0.0,89,0.00,,CLR,0.00,VWS V14.01,2013-11-14 06:36:00,
2013-11-14 01:41:00,27.7,24.9,30.54,NNW,346,0.0,0.0,89,0.00,,CLR,0.00,VWS V14.01,2013-11-14 06:41:00,
2013-11-14 01:46:00,27.5,24.7,30.54,NNW,346,0.0,0.0,89,0.00,,CLR,0.00,VWS V14.01,2013-11-14 06:46:00,
2013-11-14 01:51:00,27.5,24.7,30.54,NNW,346,0.0,0.0,89,0.00,,CLR,0.00,VWS V14.01,2013-11-14 06:51:00,
2013-11-14 01:56:00,27.4,24.6,30.55,NNW,346,0.0,0.0,89,0.00,,CLR,0.00,VWS V14.01,2013-11-14 06:56:00,
2013-11-14 02:00:00,27.4,24.6,30.55,NNW,346,0.0,0.0,89,0.00,,OVC036,0.00,VWS V14.01,2013-11-14 07:00:00,
2013-11-14 02:01:00,27.2,24.4,30.54,NNW,346,0.0,0.0,89,0.00,,CLR,0.00,VWS V14.01,2013-11-14 07:01:00,
2013-11-14 02:06:00,27.2,24.7,30.54,NNW,346,0.0,0.0,90,0.00,,CLR,0.00,VWS V14.01,2013-11-14 07:06:00,
2013-11-14 02:11:00,27.2,24.7,30.54,NNW,346,0.0,0.0,90,0.00,,CLR,0.00,VWS V14.01,2013-11-14 07:11:00,
2013-11-14 02:16:00,27.2,24.7,30.54,NNW,346,0.0,0.0,90,0.00,,CLR,0.00,VWS V14.01,2013-11-14 07:16:00,
2013-11-14 02:21:00,27.2,24.9,30.53,NNW,346,0.0,0.0,91,0.00,,CLR,0.00,VWS V14.01,2013-11-14 07:21:00,
2013-11-14 02:26:00,27.2,24.9,30.53,NNW,346,0.0,0.0,91,0.00,,CLR,0.00,VWS V14.01,2013-11-14 07:26:00,
2013-11-14 02:30:00,27.3,25.0,30.54,NNW,346,0.0,0.0,91,0.00,,OVC036,0.00,VWS V14.01,2013-11-14 07:30:00,
2013-11-14 02:31:00,27.3,25.3,30.54,NNW,346,0.0,0.0,92,0.00,,CLR,0.00,VWS V14.01,2013-11-14 07:31:00,
2013-11-14 02:36:00,27.2,24.9,30.53,NNW,346,0.0,0.0,91,0.00,,CLR,0.00,VWS V14.01,2013-11-14 07:36:00,
2013-11-14 02:41:00,27.2,24.9,30.54,NNW,346,0.0,0.0,91,0.00,,CLR,0.00,VWS V14.01,2013-11-14 07:41:00,
2013-11-14 02:46:00,27.1,24.8,30.54,NNW,346,0.0,0.0,91,0.00,,CLR,0.00,VWS V14.01,2013-11-14 07:46:00,
2013-11-14 02:51:00,27.0,24.7,30.54,NNW,346,0.0,0.0,91,0.00,,CLR,0.00,VWS V14.01,2013-11-14 07:51:00,
2013-11-14 02:56:00,27.0,25.0,30.54,NNW,346,0.0,0.0,92,0.00,,CLR,0.00,VWS V14.01,2013-11-14 07:56:00,
2013-11-14 03:00:00,27.0,24.7,30.54,NNW,346,0.0,0.0,91,0.00,,OVC036,0.00,VWS V14.01,2013-11-14 08:00:00,
2013-11-14 03:01:00,26.9,24.6,30.54,NNW,346,0.0,0.0,91,0.00,,CLR,0.00,VWS V14.01,2013-11-14 08:01:00,
2013-11-14 03:06:00,26.9,24.6,30.54,NNW,346,0.0,0.0,91,0.00,,CLR,0.00,VWS V14.01,2013-11-14 08:06:00,
2013-11-14 03:11:00,26.9,24.6,30.53,NNW,346,0.0,0.0,91,0.00,,CLR,0.00,VWS V14.01,2013-11-14 08:11:00,
2013-11-14 03:16:00,26.7,24.4,30.53,NNW,346,0.0,0.0,91,0.00,,CLR,0.00,VWS V14.01,2013-11-14 08:16:00,
2013-11-14 03:21:00,26.7,24.4,30.53,NNW,346,0.0,0.0,91,0.00,,CLR,0.00,VWS V14.01,2013-11-14 08:21:00,
2013-11-14 03:26:00,26.6,24.6,30.53,NNW,346,0.0,0.0,92,0.00,,CLR,0.00,VWS V14.01,2013-11-14 08:26:00,
2013-11-14 03:30:00,26.6,24.6,30.53,NNW,346,0.0,0.0,92,0.00,,OVC036,0.00,VWS V14.01,2013-11-14 08:30:00,
2013-11-14 03:31:00,26.6,24.6,30.53,NNW,346,0.0,0.0,92,0.00,,CLR,0.00,VWS V14.01,2013-11-14 08:31:00,
2013-11-14 03:36:00,26.6,24.6,30.53,NNW,346,0.0,0.0,92,0.00,,CLR,0.00,VWS V14.01,2013-11-14 08:36:00,
2013-11-14 03:41:00,26.5,24.5,30.53,NNW,346,0.0,0.0,92,0.00,,CLR,0.00,VWS V14.01,2013-11-14 08:41:00,
2013-11-14 03:46:00,26.5,24.5,30.52,NNW,346,0.0,0.0,92,0.00,,CLR,0.00,VWS V14.01,2013-11-14 08:46:00,
2013-11-14 03:51:00,26.4,24.4,30.53,NNW,346,0.0,0.0,92,0.00,,CLR,0.00,VWS V14.01,2013-11-14 08:51:00,
2013-11-14 03:56:00,26.3,24.3,30.53,NNW,346,0.0,0.0,92,0.00,,CLR,0.00,VWS V14.01,2013-11-14 08:56:00,
2013-11-14 04:00:00,26.3,24.3,30.53,NNW,346,0.0,0.0,92,0.00,,OVC036,0.00,VWS V14.01,2013-11-14 09:00:00,
2013-11-14 04:01:00,26.3,24.3,30.53,NNW,346,0.0,0.0,92,0.00,,CLR,0.00,VWS V14.01,2013-11-14 09:01:00,
2013-11-14 04:06:00,26.2,24.2,30.53,NNW,346,0.0,0.0,92,0.00,,CLR,0.00,VWS V14.01,2013-11-14 09:06:00,
2013-11-14 04:11:00,26.2,24.2,30.53,NNW,346,0.0,0.0,92,0.00,,CLR,0.00,VWS V14.01,2013-11-14 09:11:00,
2013-11-14 04:16:00,26.1,24.1,30.53,NNW,346,0.0,0.0,92,0.00,,CLR,0.00,VWS V14.01,2013-11-14 09:16:00,
2013-11-14 04:21:00,26.1,24.1,30.53,NNW,346,0.0,0.0,92,0.00,,CLR,0.00,VWS V14.01,2013-11-14 09:21:00,
2013-11-14 04:26:00,26.1,24.1,30.53,NNW,346,0.0,0.0,92,0.00,,CLR,0.00,VWS V14.01,2013-11-14 09:26:00,
2013-11-14 04:30:00,26.1,24.1,30.53,NNW,346,0.0,0.0,92,0.00,,OVC036,0.00,VWS V14.01,2013-11-14 09:30:00,
2013-11-14 04:31:00,26.0,24.0,30.53,NNW,346,0.0,0.0,92,0.00,,CLR,0.00,VWS V14.01,2013-11-14 09:31:00,
2013-11-14 04:36:00,25.9,23.9,30.53,NNW,346,0.0,0.0,92,0.00,,CLR,0.00,VWS V14.01,2013-11-14 09:36:00,
2013-11-14 04:41:00,25.8,23.8,30.53,NNW,346,0.0,0.0,92,0.00,,CLR,0.00,VWS V14.01,2013-11-14 09:41:00,
2013-11-14 04:46:00,25.8,23.8,30.53,NNW,346,0.0,0.0,92,0.00,,CLR,0.00,VWS V14.01,2013-11-14 09:46:00,
2013-11-14 04:51:00,25.9,23.9,30.52,NNW,346,0.0,0.0,92,0.00,,CLR,0.00,VWS V14.01,2013-11-14 09:51:00,
2013-11-14 04:56:00,25.8,23.8,30.53,NNW,346,0.0,0.0,92,0.00,,CLR,0.00,VWS V14.01,2013-11-14 09:56:00,
2013-11-14 05:00:00,25.8,23.8,30.52,NNW,346,0.0,0.0,92,0.00,,OVC036,0.00,VWS V14.01,2013-11-14 10:00:00,
2013-11-14 05:01:00,25.8,23.8,30.53,NNW,346,0.0,0.0,92,0.00,,CLR,0.00,VWS V14.01,2013-11-14 10:01:00,
2013-11-14 05:06:00,25.7,23.7,30.52,NNW,346,0.0,0.0,92,0.00,,CLR,0.00,VWS V14.01,2013-11-14 10:06:00,
2013-11-14 05:11:00,25.7,24.0,30.52,NNW,346,0.0,0.0,93,0.00,,CLR,0.00,VWS V14.01,2013-11-14 10:11:00,
2013-11-14 05:16:00,25.7,23.7,30.52,NNW,346,0.0,0.0,92,0.00,,CLR,0.00,VWS V14.01,2013-11-14 10:16:00,
2013-11-14 05:21:00,25.6,23.9,30.53,NNW,346,0.0,0.0,93,0.00,,CLR,0.00,VWS V14.01,2013-11-14 10:21:00,
2013-11-14 05:26:00,25.6,23.9,30.53,NNW,346,0.0,0.0,93,0.00,,CLR,0.00,VWS V14.01,2013-11-14 10:26:00,
2013-11-14 05:30:00,25.7,24.0,30.53,NNW,346,0.0,0.0,93,0.00,,CLR,0.00,VWS V14.01,2013-11-14 10:30:00,
2013-11-14 05:31:00,25.7,24.0,30.53,NNW,346,0.0,0.0,93,0.00,,CLR,0.00,VWS V14.01,2013-11-14 10:31:00,
2013-11-14 05:36:00,25.6,23.9,30.53,NNW,346,0.0,0.0,93,0.00,,CLR,0.00,VWS V14.01,2013-11-14 10:36:00,
2013-11-14 05:41:00,25.6,23.9,30.53,NNW,346,0.0,0.0,93,0.00,,CLR,0.00,VWS V14.01,2013-11-14 10:41:00,
2013-11-14 05:46:00,25.5,23.8,30.53,NNW,346,0.0,0.0,93,0.00,,CLR,0.00,VWS V14.01,2013-11-14 10:46:00,
2013-11-14 05:51:00,25.4,23.7,30.53,NNW,346,0.0,0.0,93,0.00,,CLR,0.00,VWS V14.01,2013-11-14 10:51:00,
2013-11-14 05:56:00,25.5,23.8,30.54,NNW,346,0.0,0.0,93,0.00,,CLR,0.00,VWS V14.01,2013-11-14 10:56:00,
2013-11-14 06:00:00,25.5,23.8,30.53,NNW,346,0.0,0.0,93,0.00,,CLR,0.00,VWS V15.00,2013-11-14 11:00:00,
2013-11-14 06:01:00,25.4,23.7,30.53,NNW,346,0.0,0.0,93,0.00,,CLR,0.00,VWS V14.01,2013-11-14 11:01:00,
2013-11-14 06:06:00,25.4,23.7,30.53,NNW,346,0.0,0.0,93,0.00,,CLR,0.00,VWS V14.01,2013-11-14 11:06:00,
2013-11-14 06:11:00,25.3,23.6,30.53,NNW,346,0.0,0.0,93,0.00,,CLR,0.00,VWS V14.01,2013-11-14 11:11:00,
2013-11-14 06:16:00,25.2,23.5,30.54,NNW,346,0.0,0.0,93,0.00,,CLR,0.00,VWS V14.01,2013-11-14 11:16:00,
2013-11-14 06:21:00,25.2,23.5,30.54,NNW,346,0.0,0.0,93,0.00,,CLR,0.00,VWS V14.01,2013-11-14 11:21:00,
2013-11-14 06:26:00,25.2,23.5,30.54,NNW,346,0.0,0.0,93,0.00,,CLR,0.00,VWS V14.01,2013-11-14 11:26:00,
2013-11-14 06:30:00,25.2,23.5,30.54,NNW,346,0.0,0.0,93,0.00,,OVC036,0.00,VWS V14.01,2013-11-14 11:30:00,
2013-11-14 06:31:00,25.1,23.4,30.54,NNW,346,0.0,0.0,93,0.00,,CLR,0.00,VWS V14.01,2013-11-14 11:31:00,
2013-11-14 06:36:00,25.1,23.4,30.54,NNW,346,0.0,0.0,93,0.00,,CLR,0.00,VWS V14.01,2013-11-14 11:36:00,
2013-11-14 06:41:00,25.1,23.4,30.54,NNW,346,0.0,0.0,93,0.00,,CLR,0.00,VWS V14.01,2013-11-14 11:41:00,
2013-11-14 06:46:00,25.0,23.3,30.55,NNW,346,0.0,0.0,93,0.00,,CLR,0.00,VWS V14.01,2013-11-14 11:46:00,
2013-11-14 06:51:00,25.0,23.3,30.55,NNW,346,0.0,0.0,93,0.00,,CLR,0.00,VWS V14.01,2013-11-14 11:51:00,
2013-11-14 06:56:00,25.1,23.4,30.55,NNW,346,0.0,0.0,93,0.00,,CLR,0.00,VWS V14.01,2013-11-14 11:56:00,
2013-11-14 07:00:00,25.0,23.3,30.55,NNW,346,0.0,0.0,93,0.00,,OVC036,0.00,VWS V14.01,2013-11-14 12:00:00,
2013-11-14 07:01:00,25.0,23.3,30.55,NNW,346,0.0,0.0,93,0.00,,CLR,0.00,VWS V14.01,2013-11-14 12:01:00,
2013-11-14 07:06:00,25.0,23.3,30.55,NNW,346,0.0,0.0,93,0.00,,CLR,0.00,VWS V14.01,2013-11-14 12:06:00,
2013-11-14 07:11:00,24.9,23.2,30.55,NNW,346,0.0,0.0,93,0.00,,CLR,0.00,VWS V14.01,2013-11-14 12:11:00,
2013-11-14 07:16:00,24.9,23.2,30.55,NNW,346,0.0,0.0,93,0.00,,CLR,0.00,VWS V14.01,2013-11-14 12:16:00,
2013-11-14 07:21:00,24.9,23.2,30.55,NNW,346,0.0,0.0,93,0.00,,CLR,0.00,VWS V14.01,2013-11-14 12:21:00,
2013-11-14 07:26:00,24.9,23.2,30.56,NNW,346,0.0,0.0,93,0.00,,CLR,0.00,VWS V14.01,2013-11-14 12:26:00,
2013-11-14 07:30:00,24.9,23.2,30.56,NNW,346,0.0,0.0,93,0.00,,CLR,0.00,VWS V14.01,2013-11-14 12:30:00,
2013-11-14 07:31:00,24.9,23.2,30.56,NNW,346,0.0,0.0,93,0.00,,CLR,0.00,VWS V14.01,2013-11-14 12:31:00,
2013-11-14 07:36:00,24.9,23.4,30.56,NNW,346,0.0,0.0,94,0.00,,CLR,0.00,VWS V14.01,2013-11-14 12:36:00,
2013-11-14 07:41:00,25.0,23.5,30.56,NNW,346,0.0,0.0,94,0.00,,CLR,0.00,VWS V14.01,2013-11-14 12:41:00,
2013-11-14 07:46:00,25.2,23.7,30.56,NNW,346,0.0,0.0,94,0.00,,CLR,0.00,VWS V14.01,2013-11-14 12:46:00,
2013-11-14 07:51:00,25.2,23.7,30.56,NNW,346,0.0,0.0,94,0.00,,CLR,0.00,VWS V14.01,2013-11-14 12:51:00,
2013-11-14 07:56:00,25.4,23.9,30.56,NNW,346,0.0,0.0,94,0.00,,CLR,0.00,VWS V14.01,2013-11-14 12:56:00,
2013-11-14 08:00:00,25.5,24.0,30.56,NNW,346,0.0,0.0,94,0.00,,OVC036,0.00,VWS V14.01,2013-11-14 13:00:00,
2013-11-14 08:01:00,25.6,24.1,30.56,NNW,346,0.0,0.0,94,0.00,,CLR,0.00,VWS V14.01,2013-11-14 13:01:00,
2013-11-14 08:06:00,25.9,24.7,30.57,NNW,346,0.0,0.0,95,0.00,,CLR,0.00,VWS V14.01,2013-11-14 13:06:00,
2013-11-14 08:11:00,26.3,25.1,30.57,NNW,346,0.0,0.0,95,0.00,,CLR,0.00,VWS V14.01,2013-11-14 13:11:00,
2013-11-14 08:16:00,26.6,25.4,30.57,NNW,346,0.0,0.0,95,0.00,,CLR,0.00,VWS V14.01,2013-11-14 13:16:00,
2013-11-14 08:21:00,27.2,26.0,30.57,NNW,346,0.0,0.0,95,0.00,,CLR,0.00,VWS V14.01,2013-11-14 13:21:00,
2013-11-14 08:26:00,27.8,26.8,30.57,NNW,346,0.0,0.0,96,0.00,,CLR,0.00,VWS V14.01,2013-11-14 13:26:00,
2013-11-14 08:30:00,28.2,27.2,30.57,NNW,346,0.0,0.0,96,0.00,,OVC036,0.00,VWS V14.01,2013-11-14 13:30:00,
2013-11-14 08:31:00,28.4,27.4,30.57,NNW,346,0.0,0.0,96,0.00,,CLR,0.00,VWS V14.01,2013-11-14 13:31:00,
2013-11-14 08:36:00,28.9,27.9,30.57,NNW,346,0.0,0.0,96,0.00,,CLR,0.00,VWS V14.01,2013-11-14 13:36:00,
2013-11-14 08:41:00,29.7,28.7,30.57,NNW,346,0.0,0.0,96,0.00,,CLR,0.00,VWS V14.01,2013-11-14 13:41:00,
2013-11-14 08:46:00,31.2,30.2,30.57,NNW,346,0.0,0.0,96,0.00,,CLR,0.00,VWS V14.01,2013-11-14 13:46:00,
2013-11-14 08:51:00,32.7,31.7,30.57,NNW,346,0.0,0.0,96,0.00,,CLR,0.00,VWS V14.01,2013-11-14 13:51:00,
2013-11-14 08:56:00,34.0,32.5,30.57,NNW,346,0.0,0.0,94,0.00,,CLR,0.00,VWS V14.01,2013-11-14 13:56:00,
2013-11-14 09:00:00,34.7,32.9,30.58,NNW,346,0.0,0.0,93,0.00,,OVC036,0.00,VWS V14.01,2013-11-14 14:00:00,
2013-11-14 09:01:00,35.2,32.8,30.58,NNW,346,0.0,0.0,91,0.00,,CLR,0.00,VWS V14.01,2013-11-14 14:01:00,
2013-11-14 09:06:00,36.2,33.3,30.58,NNW,346,0.0,0.0,89,0.00,,CLR,0.00,VWS V14.01,2013-11-14 14:06:00,
2013-11-14 09:11:00,37.2,33.7,30.57,NNW,346,0.0,0.0,87,0.00,,CLR,0.00,VWS V14.01,2013-11-14 14:11:00,
2013-11-14 09:16:00,38.4,34.3,30.58,NNW,346,0.0,0.0,85,0.00,,CLR,0.00,VWS V14.01,2013-11-14 14:16:00,
2013-11-14 09:21:00,39.2,34.2,30.58,NNW,346,0.0,0.0,82,0.00,,CLR,0.00,VWS V14.01,2013-11-14 14:21:00,
2013-11-14 09:26:00,40.0,33.4,30.58,NNW,346,0.0,0.0,77,0.00,,CLR,0.00,VWS V14.01,2013-11-14 14:26:00,
2013-11-14 09:30:00,40.6,32.0,30.57,NNW,346,0.0,0.0,71,0.00,,OVC036,0.00,VWS V14.01,2013-11-14 14:30:00,
2013-11-14 09:31:00,41.0,32.0,30.57,NNW,346,0.0,0.0,70,0.00,,CLR,0.00,VWS V14.01,2013-11-14 14:31:00,
2013-11-14 09:36:00,42.1,31.6,30.57,NNW,346,0.0,0.0,66,0.00,,CLR,0.00,VWS V14.01,2013-11-14 14:36:00,
2013-11-14 09:41:00,43.3,31.2,30.57,NNW,346,0.0,0.0,62,0.00,,CLR,0.00,VWS V14.01,2013-11-14 14:41:00,
2013-11-14 09:46:00,44.1,31.1,30.57,NNW,346,0.0,0.0,60,0.00,,CLR,0.00,VWS V14.01,2013-11-14 14:46:00,
2013-11-14 09:47:00,44.2,31.2,30.57,NNW,346,0.0,0.0,60,0.00,,CLR,0.00,VWS V14.01,2013-11-14 14:47:00,
2013-11-14 09:52:00,44.9,30.2,30.57,ENE,71,0.0,0.0,56,0.00,,CLR,0.00,VWS V14.01,2013-11-14 14:52:00,
2013-11-14 09:57:00,44.6,29.9,30.57,South,189,0.0,2.0,56,0.00,,CLR,0.00,VWS V14.01,2013-11-14 14:57:00,
2013-11-14 10:00:00,44.4,29.7,30.57,South,189,0.0,2.0,56,0.00,,OVC036,0.00,VWS V14.01,2013-11-14 15:00:00,
2013-11-14 10:02:00,44.5,29.8,30.57,South,189,0.0,1.0,56,0.00,,CLR,0.00,VWS V14.01,2013-11-14 15:02:00,
2013-11-14 10:07:00,45.1,30.4,30.57,South,178,0.0,1.0,56,0.00,,CLR,0.00,VWS V14.01,2013-11-14 15:07:00,
2013-11-14 10:12:00,45.2,29.1,30.57,South,181,0.0,3.0,53,0.00,,CLR,0.00,VWS V14.01,2013-11-14 15:12:00,
2013-11-14 10:17:00,45.1,28.1,30.57,South,183,0.0,3.0,51,0.00,,CLR,0.00,VWS V14.01,2013-11-14 15:17:00,
2013-11-14 10:22:00,45.7,28.6,30.57,ESE,119,0.0,3.0,51,0.00,,CLR,0.00,VWS V14.01,2013-11-14 15:22:00,
2013-11-14 10:27:00,45.9,27.8,30.57,WSW,240,0.0,3.0,49,0.00,,CLR,0.00,VWS V14.01,2013-11-14 15:27:00,
2013-11-14 10:30:00,46.2,28.6,30.57,North,360,0.0,3.0,50,0.00,,OVC036,0.00,VWS V14.01,2013-11-14 15:30:00,
2013-11-14 10:32:00,46.9,28.8,30.57,North,360,0.0,0.0,49,0.00,,CLR,0.00,VWS V14.01,2013-11-14 15:32:00,
2013-11-14 10:37:00,47.8,29.1,30.57,SW,218,0.0,2.0,48,0.00,,CLR,0.00,VWS V14.01,2013-11-14 15:37:00,
2013-11-14 10:42:00,48.8,28.4,30.56,NNE,15,0.0,3.0,45,0.00,,CLR,0.00,VWS V14.01,2013-11-14 15:42:00,
2013-11-14 10:47:00,49.3,27.2,30.56,ESE,104,0.0,3.0,42,0.00,,CLR,0.00,VWS V14.01,2013-11-14 15:47:00,
2013-11-14 10:52:00,49.0,25.8,30.56,SSW,200,0.0,3.0,40,0.00,,CLR,0.00,VWS V14.01,2013-11-14 15:52:00,
2013-11-14 10:57:00,49.5,24.3,30.55,SSE,167,1.0,3.0,37,0.00,,CLR,0.00,VWS V14.01,2013-11-14 15:57:00,
2013-11-14 11:00:00,49.6,24.4,30.55,SSW,212,0.0,3.0,37,0.00,,OVC036,0.00,VWS V14.01,2013-11-14 16:00:00,
2013-11-14 11:02:00,49.5,24.3,30.55,SW,229,2.0,3.0,37,0.00,,CLR,0.00,VWS V14.01,2013-11-14 16:02:00,
2013-11-14 11:07:00,49.3,22.8,30.55,SW,219,0.0,3.0,35,0.00,,CLR,0.00,VWS V14.01,2013-11-14 16:07:00,
2013-11-14 11:12:00,50.3,24.4,30.55,SW,219,0.0,3.0,36,0.00,,CLR,0.00,VWS V14.01,2013-11-14 16:12:00,
2013-11-14 11:17:00,51.2,23.8,30.55,ENE,73,0.0,4.0,34,0.00,,CLR,0.00,VWS V14.01,2013-11-14 16:17:00,
2013-11-14 11:22:00,50.9,21.4,30.54,South,187,0.0,4.0,31,0.00,,CLR,0.00,VWS V14.01,2013-11-14 16:22:00,
2013-11-14 11:27:00,51.2,21.6,30.54,SSE,165,0.0,4.0,31,0.00,,CLR,0.00,VWS V14.01,2013-11-14 16:27:00,
2013-11-14 11:30:00,51.4,21.8,30.54,SSE,165,0.0,4.0,31,0.00,,OVC036,0.00,VWS V14.01,2013-11-14 16:30:00,
2013-11-14 11:32:00,51.8,22.9,30.53,SSE,165,1.0,1.0,32,0.00,,CLR,0.00,VWS V14.01,2013-11-14 16:32:00,
2013-11-14 11:37:00,52.1,22.4,30.53,SSW,211,0.0,3.0,31,0.00,,CLR,0.00,VWS V14.01,2013-11-14 16:37:00,
2013-11-14 11:42:00,52.5,22.8,30.53,ENE,74,2.0,5.0,31,0.00,,CLR,0.00,VWS V14.01,2013-11-14 16:42:00,
2013-11-14 11:47:00,52.7,23.7,30.53,SSE,150,1.0,5.0,32,0.00,,CLR,0.00,VWS V14.01,2013-11-14 16:47:00,
2013-11-14 11:52:00,52.9,22.3,30.53,NNE,32,0.0,5.0,30,0.00,,CLR,0.00,VWS V14.01,2013-11-14 16:52:00,
2013-11-14 11:57:00,52.5,21.2,30.52,SW,215,0.0,5.0,29,0.00,,CLR,0.00,VWS V14.01,2013-11-14 16:57:00,
2013-11-14 12:00:00,52.7,23.7,30.52,SW,215,0.0,5.0,32,0.00,,OVC036,0.00,VWS V14.01,2013-11-14 17:00:00,
2013-11-14 12:02:00,53.6,22.9,30.52,North,9,0.0,1.0,30,0.00,,CLR,0.00,VWS V14.01,2013-11-14 17:02:00,
2013-11-14 12:07:00,53.6,20.5,30.51,SSW,213,2.0,5.0,27,0.00,,CLR,0.00,VWS V14.01,2013-11-14 17:07:00,
2013-11-14 12:12:00,53.5,22.0,30.51,SW,228,2.0,5.0,29,0.00,,CLR,0.00,VWS V14.01,2013-11-14 17:12:00,
2013-11-14 12:17:00,53.4,20.3,30.51,SSW,200,0.0,6.0,27,0.00,,CLR,0.00,VWS V14.01,2013-11-14 17:17:00,
2013-11-14 12:22:00,53.4,20.3,30.50,South,184,3.0,6.0,27,0.00,,CLR,0.00,VWS V14.01,2013-11-14 17:22:00,
2013-11-14 12:27:00,54.6,22.2,30.50,SW,227,0.0,6.0,28,0.00,,CLR,0.00,VWS V14.01,2013-11-14 17:27:00,
2013-11-14 12:30:00,55.2,21.8,30.50,SSW,202,6.0,6.0,27,0.00,,OVC036,0.00,VWS V14.01,2013-11-14 17:30:00,
2013-11-14 12:31:00,54.3,21.0,30.50,SW,217,0.0,6.0,27,0.00,,CLR,0.00,VWS V14.01,2013-11-14 17:31:00,
2013-11-14 12:36:00,54.9,21.6,30.49,SSE,166,4.0,6.0,27,0.00,,CLR,0.00,VWS V14.01,2013-11-14 17:36:00,
2013-11-14 12:41:00,55.1,21.7,30.49,South,170,0.0,6.0,27,0.00,,CLR,0.00,VWS V14.01,2013-11-14 17:41:00,
2013-11-14 12:46:00,55.1,20.9,30.48,SW,229,0.0,6.0,26,0.00,,CLR,0.00,VWS V14.01,2013-11-14 17:46:00,
2013-11-14 12:51:00,55.6,21.3,30.48,SE,125,0.0,6.0,26,0.00,,CLR,0.00,VWS V14.01,2013-11-14 17:51:00,
2013-11-14 12:56:00,55.7,22.3,30.47,SSW,199,3.0,6.0,27,0.00,,CLR,0.00,VWS V14.01,2013-11-14 17:56:00,
2013-11-14 13:00:00,55.8,20.5,30.47,SW,224,4.0,6.0,25,0.00,,OVC036,0.00,VWS V14.01,2013-11-14 18:00:00,
2013-11-14 13:01:00,55.6,20.4,30.47,SW,235,4.0,4.0,25,0.00,,CLR,0.00,VWS V14.01,2013-11-14 18:01:00,
2013-11-14 13:06:00,56.2,21.8,30.47,NW,306,0.0,5.0,26,0.00,,CLR,0.00,VWS V14.01,2013-11-14 18:06:00,
2013-11-14 13:11:00,57.0,21.5,30.46,SW,222,6.0,6.0,25,0.00,,CLR,0.00,VWS V14.01,2013-11-14 18:11:00,
2013-11-14 13:16:00,57.4,21.9,30.46,ESE,123,0.0,6.0,25,0.00,,CLR,0.00,VWS V14.01,2013-11-14 18:16:00,
2013-11-14 13:21:00,58.1,24.3,30.45,WSW,244,0.0,6.0,27,0.00,,CLR,0.00,VWS V14.01,2013-11-14 18:21:00,
2013-11-14 13:26:00,57.6,22.1,30.45,SSW,202,0.0,6.0,25,0.00,,CLR,0.00,VWS V14.01,2013-11-14 18:26:00,
2013-11-14 13:30:00,58.0,23.3,30.45,NNW,341,0.0,6.0,26,0.00,,OVC036,0.00,VWS V14.01,2013-11-14 18:30:00,
2013-11-14 13:31:00,58.2,22.6,30.45,South,169,1.0,3.0,25,0.00,,CLR,0.00,VWS V14.01,2013-11-14 18:31:00,
2013-11-14 13:36:00,58.0,21.4,30.45,SSE,163,1.0,3.0,24,0.00,,CLR,0.00,VWS V14.01,2013-11-14 18:36:00,
2013-11-14 13:41:00,58.2,21.6,30.45,ESE,111,0.0,3.0,24,0.00,,CLR,0.00,VWS V14.01,2013-11-14 18:41:00,
2013-11-14 13:46:00,58.7,21.0,30.45,SW,228,3.0,8.0,23,0.00,,CLR,0.00,VWS V14.01,2013-11-14 18:46:00,
2013-11-14 13:51:00,58.4,20.8,30.44,East,94,2.0,8.0,23,0.00,,CLR,0.00,VWS V14.01,2013-11-14 18:51:00,
2013-11-14 13:56:00,58.8,21.1,30.44,SSE,159,2.0,8.0,23,0.00,,CLR,0.00,VWS V14.01,2013-11-14 18:56:00,
2013-11-14 14:00:00,58.7,21.0,30.44,SW,221,0.0,8.0,23,0.00,,CLR,0.00,VWS V14.01,2013-11-14 19:00:00,
2013-11-14 14:01:00,58.7,21.0,30.44,SW,221,0.0,0.0,23,0.00,,CLR,0.00,VWS V14.01,2013-11-14 19:01:00,
2013-11-14 14:06:00,59.3,23.5,30.44,SW,221,1.0,3.0,25,0.00,,CLR,0.00,VWS V14.01,2013-11-14 19:06:00,
2013-11-14 14:11:00,59.4,20.6,30.43,WSW,237,3.0,7.0,22,0.00,,CLR,0.00,VWS V14.01,2013-11-14 19:11:00,
2013-11-14 14:16:00,59.0,21.3,30.43,ESE,121,0.0,7.0,23,0.00,,CLR,0.00,VWS V14.01,2013-11-14 19:16:00,
2013-11-14 14:21:00,58.6,20.9,30.43,SSW,194,0.0,7.0,23,0.00,,CLR,0.00,VWS V14.01,2013-11-14 19:21:00,
2013-11-14 14:26:00,58.5,20.9,30.42,WNW,300,0.0,7.0,23,0.00,,CLR,0.00,VWS V14.01,2013-11-14 19:26:00,
2013-11-14 14:30:00,59.2,23.4,30.42,WNW,300,0.0,7.0,25,0.00,,OVC036,0.00,VWS V14.01,2013-11-14 19:30:00,
2013-11-14 14:31:00,59.9,22.0,30.42,WSW,239,3.0,3.0,23,0.00,,CLR,0.00,VWS V14.01,2013-11-14 19:31:00,
2013-11-14 14:36:00,59.9,21.0,30.42,SW,215,0.0,5.0,22,0.00,,CLR,0.00,VWS V14.01,2013-11-14 19:36:00,
2013-11-14 14:41:00,60.1,21.1,30.42,SW,234,1.0,7.0,22,0.00,,CLR,0.00,VWS V14.01,2013-11-14 19:41:00,
2013-11-14 14:46:00,59.5,19.6,30.42,SW,217,0.0,7.0,21,0.00,,CLR,0.00,VWS V14.01,2013-11-14 19:46:00,
2013-11-14 14:51:00,60.2,20.1,30.41,SW,227,0.0,7.0,21,0.00,,CLR,0.00,VWS V14.01,2013-11-14 19:51:00,
2013-11-14 14:56:00,60.3,20.2,30.41,SSE,167,1.0,7.0,21,0.00,,CLR,0.00,VWS V14.01,2013-11-14 19:56:00,
2013-11-14 15:00:00,60.3,20.2,30.41,SE,132,1.0,7.0,21,0.00,,OVC036,0.00,VWS V14.01,2013-11-14 20:00:00,
2013-11-14 15:01:00,60.2,20.1,30.41,SW,215,5.0,5.0,21,0.00,,CLR,0.00,VWS V14.01,2013-11-14 20:01:00,
2013-11-14 15:06:00,59.2,19.3,30.41,SW,215,2.0,5.0,21,0.00,,CLR,0.00,VWS V14.01,2013-11-14 20:06:00,
2013-11-14 15:11:00,59.0,19.1,30.41,SSW,194,0.0,5.0,21,0.00,,CLR,0.00,VWS V14.01,2013-11-14 20:11:00,
2013-11-14 15:16:00,59.3,20.5,30.41,South,175,0.0,5.0,22,0.00,,CLR,0.00,VWS V14.01,2013-11-14 20:16:00,
2013-11-14 15:21:00,59.1,19.2,30.41,SSE,151,0.0,5.0,21,0.00,,CLR,0.00,VWS V14.01,2013-11-14 20:21:00,
2013-11-14 15:26:00,58.5,19.8,30.40,SW,222,0.0,5.0,22,0.00,,CLR,0.00,VWS V14.01,2013-11-14 20:26:00,
2013-11-14 15:30:00,58.4,20.8,30.40,SW,222,0.0,5.0,23,0.00,,OVC036,0.00,VWS V14.01,2013-11-14 20:30:00,
2013-11-14 15:31:00,58.3,19.6,30.41,ESE,116,0.0,3.0,22,0.00,,CLR,0.00,VWS V14.01,2013-11-14 20:31:00,
2013-11-14 15:36:00,58.3,19.6,30.41,SW,221,0.0,4.0,22,0.00,,CLR,0.00,VWS V14.01,2013-11-14 20:36:00,
2013-11-14 15:41:00,58.1,20.5,30.41,SW,225,2.0,5.0,23,0.00,,CLR,0.00,VWS V14.01,2013-11-14 20:41:00,
2013-11-14 15:46:00,57.8,20.3,30.41,WSW,244,6.0,6.0,23,0.00,,CLR,0.00,VWS V14.01,2013-11-14 20:46:00,
2013-11-14 15:51:00,57.7,19.1,30.41,SW,224,0.0,6.0,22,0.00,,CLR,0.00,VWS V14.01,2013-11-14 20:51:00,
2013-11-14 15:56:00,57.4,19.9,30.41,ESE,109,2.0,6.0,23,0.00,,CLR,0.00,VWS V14.01,2013-11-14 20:56:00,
2013-11-14 16:00:00,57.3,20.8,30.41,SSW,202,0.0,6.0,24,0.00,,OVC036,0.00,VWS V14.01,2013-11-14 21:00:00,
2013-11-14 16:01:00,57.2,20.8,30.41,ESE,111,1.0,2.0,24,0.00,,CLR,0.00,VWS V14.01,2013-11-14 21:01:00,
2013-11-14 16:06:00,57.2,20.8,30.41,SW,227,0.0,4.0,24,0.00,,CLR,0.00,VWS V14.01,2013-11-14 21:06:00,
2013-11-14 16:11:00,57.4,20.9,30.40,SW,227,0.0,4.0,24,0.00,,CLR,0.00,VWS V14.01,2013-11-14 21:11:00,
2013-11-14 16:16:00,57.5,22.0,30.40,SW,217,0.0,4.0,25,0.00,,CLR,0.00,VWS V14.01,2013-11-14 21:16:00,
2013-11-14 16:21:00,57.3,19.8,30.40,SE,142,0.0,4.0,23,0.00,,CLR,0.00,VWS V14.01,2013-11-14 21:21:00,
2013-11-14 16:26:00,57.3,22.7,30.40,SSE,161,2.0,4.0,26,0.00,,CLR,0.00,VWS V14.01,2013-11-14 21:26:00,
2013-11-14 16:30:00,57.3,20.8,30.40,SSW,205,0.0,4.0,24,0.00,,OVC036,0.00,VWS V14.01,2013-11-14 21:30:00,
2013-11-14 16:31:00,57.3,21.8,30.40,SSW,205,0.0,1.0,25,0.00,,CLR,0.00,VWS V14.01,2013-11-14 21:31:00,
2013-11-14 16:36:00,57.3,20.8,30.40,SSW,205,0.0,1.0,24,0.00,,CLR,0.00,VWS V14.01,2013-11-14 21:36:00,
2013-11-14 16:41:00,57.4,20.9,30.39,SSW,203,0.0,1.0,24,0.00,,CLR,0.00,VWS V14.01,2013-11-14 21:41:00,
2013-11-14 16:46:00,57.7,21.2,30.40,SSW,203,0.0,2.0,24,0.00,,CLR,0.00,VWS V14.01,2013-11-14 21:46:00,
2013-11-14 16:51:00,57.3,21.8,30.40,SE,141,0.0,2.0,25,0.00,,CLR,0.00,VWS V14.01,2013-11-14 21:51:00,
2013-11-14 16:56:00,56.9,22.4,30.40,SE,141,0.0,2.0,26,0.00,,CLR,0.00,VWS V14.01,2013-11-14 21:56:00,
2013-11-14 17:00:00,56.7,24.0,30.39,SE,141,0.0,2.0,28,0.00,,OVC036,0.00,VWS V14.01,2013-11-14 22:00:00,
2013-11-14 17:01:00,56.5,22.0,30.39,SE,141,0.0,0.0,26,0.00,,CLR,0.00,VWS V14.01,2013-11-14 22:01:00,
2013-11-14 17:06:00,55.9,22.4,30.39,SW,232,0.0,1.0,27,0.00,,CLR,0.00,VWS V14.01,2013-11-14 22:06:00,
2013-11-14 17:11:00,55.5,24.6,30.39,SW,221,0.0,1.0,30,0.00,,CLR,0.00,VWS V14.01,2013-11-14 22:11:00,
2013-11-14 17:16:00,54.8,26.3,30.39,SW,221,0.0,1.0,33,0.00,,CLR,0.00,VWS V14.01,2013-11-14 22:16:00,
2013-11-14 17:21:00,54.2,27.2,30.39,SW,221,0.0,1.0,35,0.00,,CLR,0.00,VWS V14.01,2013-11-14 22:21:00,
2013-11-14 17:26:00,53.7,27.4,30.39,SW,221,0.0,1.0,36,0.00,,CLR,0.00,VWS V14.01,2013-11-14 22:26:00,
2013-11-14 17:30:00,53.3,27.0,30.39,SW,221,0.0,1.0,36,0.00,,OVC036,0.00,VWS V14.01,2013-11-14 22:30:00,
2013-11-14 17:31:00,53.1,26.9,30.39,SW,221,0.0,0.0,36,0.00,,CLR,0.00,VWS V14.01,2013-11-14 22:31:00,
2013-11-14 17:36:00,52.4,27.6,30.39,SW,221,0.0,0.0,38,0.00,,CLR,0.00,VWS V14.01,2013-11-14 22:36:00,
2013-11-14 17:41:00,51.4,29.7,30.39,SW,221,0.0,0.0,43,0.00,,CLR,0.00,VWS V14.01,2013-11-14 22:41:00,
2013-11-14 17:46:00,50.8,29.7,30.39,SW,221,0.0,0.0,44,0.00,,CLR,0.00,VWS V14.01,2013-11-14 22:46:00,
2013-11-14 17:51:00,50.2,29.1,30.39,SW,221,0.0,0.0,44,0.00,,CLR,0.00,VWS V14.01,2013-11-14 22:51:00,
2013-11-14 17:56:00,49.6,29.1,30.39,SW,221,0.0,0.0,45,0.00,,CLR,0.00,VWS V14.01,2013-11-14 22:56:00,
2013-11-14 18:00:00,49.2,28.2,30.39,SW,221,0.0,0.0,44,0.00,,OVC036,0.00,VWS V14.01,2013-11-14 23:00:00,
2013-11-14 18:01:00,48.9,30.1,30.39,SW,221,0.0,0.0,48,0.00,,CLR,0.00,VWS V14.01,2013-11-14 23:01:00,
2013-11-14 18:06:00,48.3,28.5,30.39,SW,221,0.0,0.0,46,0.00,,CLR,0.00,VWS V14.01,2013-11-14 23:06:00,
2013-11-14 18:11:00,47.7,29.0,30.39,SW,221,0.0,0.0,48,0.00,,CLR,0.00,VWS V14.01,2013-11-14 23:11:00,
2013-11-14 18:16:00,47.0,28.3,30.39,SW,221,0.0,0.0,48,0.00,,CLR,0.00,VWS V14.01,2013-11-14 23:16:00,
2013-11-14 18:21:00,46.5,28.9,30.39,SW,221,0.0,0.0,50,0.00,,CLR,0.00,VWS V14.01,2013-11-14 23:21:00,
2013-11-14 18:26:00,46.0,28.4,30.39,SW,221,0.0,0.0,50,0.00,,CLR,0.00,VWS V14.01,2013-11-14 23:26:00,
2013-11-14 18:30:00,45.7,29.1,30.39,SW,221,0.0,0.0,52,0.00,,CLR,0.00,VWS V14.01,2013-11-14 23:30:00,
2013-11-14 18:31:00,45.5,28.4,30.39,SW,221,0.0,0.0,51,0.00,,CLR,0.00,VWS V14.01,2013-11-14 23:31:00,
2013-11-14 18:36:00,44.9,27.9,30.39,SW,221,0.0,0.0,51,0.00,,CLR,0.00,VWS V14.01,2013-11-14 23:36:00,
2013-11-14 18:41:00,44.4,27.9,30.39,SW,221,0.0,0.0,52,0.00,,CLR,0.00,VWS V14.01,2013-11-14 23:41:00,
2013-11-14 18:46:00,43.9,27.9,30.39,SW,221,0.0,0.0,53,0.00,,CLR,0.00,VWS V14.01,2013-11-14 23:46:00,
2013-11-14 18:51:00,43.5,28.0,30.39,SW,221,0.0,0.0,54,0.00,,CLR,0.00,VWS V14.01,2013-11-14 23:51:00,
2013-11-14 18:56:00,43.0,27.5,30.39,SW,221,0.0,0.0,54,0.00,,CLR,0.00,VWS V14.01,2013-11-14 23:56:00,
2013-11-14 19:00:00,42.8,27.8,30.39,SW,221,0.0,0.0,55,0.00,,OVC036,0.00,VWS V14.01,2013-11-15 00:00:00,
2013-11-14 19:01:00,42.6,27.6,30.39,SW,221,0.0,0.0,55,0.00,,CLR,0.00,VWS V14.01,2013-11-15 00:01:00,
2013-11-14 19:06:00,42.3,27.7,30.39,SW,221,0.0,0.0,56,0.00,,CLR,0.00,VWS V14.01,2013-11-15 00:06:00,
2013-11-14 19:11:00,41.8,28.1,30.39,SW,221,0.0,0.0,58,0.00,,CLR,0.00,VWS V14.01,2013-11-15 00:11:00,
2013-11-14 19:16:00,41.5,27.8,30.39,SW,221,0.0,0.0,58,0.00,,CLR,0.00,VWS V14.01,2013-11-15 00:16:00,
2013-11-14 19:21:00,41.2,28.0,30.39,SW,221,0.0,0.0,59,0.00,,CLR,0.00,VWS V14.01,2013-11-15 00:21:00,
2013-11-14 19:26:00,40.9,28.1,30.39,SW,221,0.0,0.0,60,0.00,,CLR,0.00,VWS V14.01,2013-11-15 00:26:00,
2013-11-14 19:30:00,40.6,28.2,30.39,SW,221,0.0,0.0,61,0.00,,CLR,0.00,VWS V14.01,2013-11-15 00:30:00,
2013-11-14 19:31:00,40.5,28.5,30.39,SW,221,0.0,0.0,62,0.00,,CLR,0.00,VWS V14.01,2013-11-15 00:31:00,
2013-11-14 19:36:00,40.2,28.6,30.39,SW,221,0.0,0.0,63,0.00,,CLR,0.00,VWS V14.01,2013-11-15 00:36:00,
2013-11-14 19:41:00,39.8,27.5,30.39,SW,221,0.0,0.0,61,0.00,,CLR,0.00,VWS V14.01,2013-11-15 00:41:00,
2013-11-14 19:46:00,39.5,27.6,30.39,SW,221,0.0,0.0,62,0.00,,CLR,0.00,VWS V14.01,2013-11-15 00:46:00,
2013-11-14 19:51:00,39.2,28.4,30.39,SW,221,0.0,0.0,65,0.00,,CLR,0.00,VWS V14.01,2013-11-15 00:51:00,
2013-11-14 19:56:00,38.9,28.1,30.39,SW,221,0.0,0.0,65,0.00,,CLR,0.00,VWS V14.01,2013-11-15 00:56:00,
2013-11-14 20:00:00,38.8,28.1,30.39,SW,221,0.0,0.0,65,0.00,,OVC036,0.00,VWS V14.01,2013-11-15 01:00:00,
2013-11-14 20:01:00,38.6,27.9,30.39,SW,221,0.0,0.0,65,0.00,,CLR,0.00,VWS V14.01,2013-11-15 01:01:00,
2013-11-14 20:06:00,38.4,28.0,30.39,SW,221,0.0,0.0,66,0.00,,CLR,0.00,VWS V14.01,2013-11-15 01:06:00,
2013-11-14 20:11:00,38.1,27.8,30.39,SW,221,0.0,0.0,66,0.00,,CLR,0.00,VWS V14.01,2013-11-15 01:11:00,
2013-11-14 20:16:00,37.9,27.6,30.39,SW,221,0.0,0.0,66,0.00,,CLR,0.00,VWS V14.01,2013-11-15 01:16:00,
2013-11-14 20:21:00,37.7,28.5,30.40,SW,221,0.0,0.0,69,0.00,,CLR,0.00,VWS V14.01,2013-11-15 01:21:00,
2013-11-14 20:26:00,37.4,28.2,30.40,SW,221,0.0,0.0,69,0.00,,CLR,0.00,VWS V14.01,2013-11-15 01:26:00,
2013-11-14 20:30:00,37.3,28.8,30.40,SW,221,0.0,0.0,71,0.00,,OVC036,0.00,VWS V14.01,2013-11-15 01:30:00,
2013-11-14 20:31:00,37.2,28.7,30.40,SW,221,0.0,0.0,71,0.00,,CLR,0.00,VWS V14.01,2013-11-15 01:31:00,
2013-11-14 20:35:00,37.0,28.5,30.40,SW,221,0.0,0.0,71,0.00,,CLR,0.00,VWS V14.01,2013-11-15 01:35:00,
2013-11-14 20:40:00,36.9,28.4,30.40,SW,221,0.0,0.0,71,0.00,,CLR,0.00,VWS V14.01,2013-11-15 01:40:00,
2013-11-14 20:45:00,36.6,28.4,30.40,SW,221,0.0,0.0,72,0.00,,CLR,0.00,VWS V14.01,2013-11-15 01:45:00,
2013-11-14 20:50:00,36.4,28.6,30.41,SW,221,0.0,0.0,73,0.00,,CLR,0.00,VWS V14.01,2013-11-15 01:50:00,
2013-11-14 20:55:00,36.2,28.7,30.42,SW,221,0.0,0.0,74,0.00,,CLR,0.00,VWS V14.01,2013-11-15 01:55:00,
2013-11-14 21:00:00,36.1,29.0,30.42,SW,221,0.0,0.0,75,0.00,,CLR,0.00,VWS V14.01,2013-11-15 02:00:00,
2013-11-14 21:05:00,36.0,28.9,30.41,SW,221,0.0,0.0,75,0.00,,CLR,0.00,VWS V14.01,2013-11-15 02:05:00,
2013-11-14 21:10:00,35.8,28.3,30.41,SW,221,0.0,0.0,74,0.00,,CLR,0.00,VWS V14.01,2013-11-15 02:10:00,
2013-11-14 21:15:00,35.6,28.1,30.41,SW,221,0.0,0.0,74,0.00,,CLR,0.00,VWS V14.01,2013-11-15 02:15:00,
2013-11-14 21:20:00,35.5,28.0,30.41,SW,221,0.0,0.0,74,0.00,,CLR,0.00,VWS V14.01,2013-11-15 02:20:00,
2013-11-14 21:25:00,35.5,28.7,30.41,SW,221,0.0,0.0,76,0.00,,CLR,0.00,VWS V14.01,2013-11-15 02:25:00,
2013-11-14 21:30:00,35.4,28.6,30.40,SW,221,0.0,0.0,76,0.00,,CLR,0.00,VWS V14.01,2013-11-15 02:30:00,
2013-11-14 21:35:00,35.3,28.5,30.40,SW,221,0.0,0.0,76,0.00,,CLR,0.00,VWS V14.01,2013-11-15 02:35:00,
2013-11-14 21:40:00,35.2,28.7,30.40,SW,221,0.0,0.0,77,0.00,,CLR,0.00,VWS V14.01,2013-11-15 02:40:00,
2013-11-14 21:45:00,35.1,28.3,30.40,SW,221,0.0,0.0,76,0.00,,CLR,0.00,VWS V14.01,2013-11-15 02:45:00,
2013-11-14 21:50:00,35.0,28.9,30.40,SW,221,0.0,0.0,78,0.00,,CLR,0.00,VWS V14.01,2013-11-15 02:50:00,
2013-11-14 21:55:00,34.9,28.4,30.40,SW,221,0.0,0.0,77,0.00,,CLR,0.00,VWS V14.01,2013-11-15 02:55:00,
2013-11-14 22:00:00,34.7,28.5,30.40,SW,221,0.0,0.0,78,0.00,,CLR,0.00,VWS V14.01,2013-11-15 03:00:00,
2013-11-14 22:05:00,34.6,28.1,30.40,SW,221,0.0,0.0,77,0.00,,CLR,0.00,VWS V14.01,2013-11-15 03:05:00,
2013-11-14 22:10:00,34.4,28.0,30.40,SW,221,0.0,0.0,77,0.00,,CLR,0.00,VWS V14.01,2013-11-15 03:10:00,
2013-11-14 22:15:00,34.3,28.2,30.40,SW,221,0.0,0.0,78,0.00,,CLR,0.00,VWS V14.01,2013-11-15 03:15:00,
2013-11-14 22:20:00,34.2,28.7,30.40,SW,221,0.0,0.0,80,0.00,,CLR,0.00,VWS V14.01,2013-11-15 03:20:00,
2013-11-14 22:25:00,34.1,28.6,30.40,SW,221,0.0,0.0,80,0.00,,CLR,0.00,VWS V14.01,2013-11-15 03:25:00,
2013-11-14 22:30:00,33.9,28.4,30.40,SW,221,0.0,0.0,80,0.00,,CLR,0.00,VWS V14.01,2013-11-15 03:30:00,
2013-11-14 22:35:00,33.8,28.3,30.40,SW,221,0.0,0.0,80,0.00,,CLR,0.00,VWS V14.01,2013-11-15 03:35:00,
2013-11-14 22:40:00,33.7,28.2,30.40,SW,221,0.0,0.0,80,0.00,,CLR,0.00,VWS V14.01,2013-11-15 03:40:00,
2013-11-14 22:45:00,33.5,28.3,30.40,SW,221,0.0,0.0,81,0.00,,CLR,0.00,VWS V14.01,2013-11-15 03:45:00,
2013-11-14 22:50:00,33.4,27.9,30.39,SW,221,0.0,0.0,80,0.00,,CLR,0.00,VWS V14.01,2013-11-15 03:50:00,
2013-11-14 22:55:00,33.4,27.9,30.39,SW,221,0.0,0.0,80,0.00,,CLR,0.00,VWS V14.01,2013-11-15 03:55:00,
2013-11-14 23:00:00,33.4,28.2,30.39,SW,221,0.0,0.0,81,0.00,,CLR,0.00,VWS V14.01,2013-11-15 04:00:00,
2013-11-14 23:05:00,33.4,28.5,30.39,SW,221,0.0,0.0,82,0.00,,CLR,0.00,VWS V14.01,2013-11-15 04:05:00,
2013-11-14 23:10:00,33.4,28.5,30.39,SW,221,0.0,0.0,82,0.00,,CLR,0.00,VWS V14.01,2013-11-15 04:10:00,
2013-11-14 23:15:00,33.4,28.5,30.39,SW,221,0.0,0.0,82,0.00,,CLR,0.00,VWS V14.01,2013-11-15 04:15:00,
2013-11-14 23:20:00,33.4,28.5,30.39,SW,221,0.0,0.0,82,0.00,,CLR,0.00,VWS V14.01,2013-11-15 04:20:00,
2013-11-14 23:25:00,33.3,28.4,30.39,SW,221,0.0,0.0,82,0.00,,CLR,0.00,VWS V14.01,2013-11-15 04:25:00,
2013-11-14 23:30:00,33.3,28.4,30.39,SW,221,0.0,0.0,82,0.00,,CLR,0.00,VWS V14.01,2013-11-15 04:30:00,
2013-11-14 23:35:00,33.3,28.4,30.39,SW,221,0.0,0.0,82,0.00,,CLR,0.00,VWS V14.01,2013-11-15 04:35:00,
2013-11-14 23:40:00,33.5,28.9,30.39,SW,221,0.0,0.0,83,0.00,,CLR,0.00,VWS V14.01,2013-11-15 04:40:00,
2013-11-14 23:45:00,33.5,28.9,30.39,SW,221,0.0,0.0,83,0.00,,CLR,0.00,VWS V14.01,2013-11-15 04:45:00,
2013-11-14 23:50:00,33.6,29.0,30.39,SW,221,0.0,0.0,83,0.00,,CLR,0.00,VWS V14.01,2013-11-15 04:50:00,
2013-11-14 23:55:00,33.7,29.1,30.39,SW,221,0.0,0.0,83,0.00,,CLR,0.00,VWS V14.01,2013-11-15 04:55:00,